Date,TemperatureHighF,TemperatureAvgF,TemperatureLowF,DewpointHighF,DewpointAvgF,DewpointLowF,HumidityHigh,HumidityAvg,HumidityLow,PressureMaxIn,PressureMinIn,WindSpeedMaxMPH,WindSpeedAvgMPH,GustSpeedMaxMPH,PrecipitationSumIn
2013-1-1,38,34,30,31,29,26,90,83,77,30.04,29.94,15,5,17,0.10
2013-1-2,30,26,22,26,20,16,89,77,61,30.25,30.01,19,4,19,0.00
2013-1-3,35,27,17,24,19,14,88,74,59,30.28,30.16,24,3,24,0.03
2013-1-4,33,30,28,25,23,21,79,75,69,30.25,30.16,27,8,27,0.00
2013-1-5,40,32,28,27,24,22,80,72,55,30.40,30.18,14,4,19,0.07
2013-1-6,40,36,31,32,29,24,85,76,67,30.20,30.04,18,2,18,0.09
2013-1-7,36,31,21,31,26,18,92,81,70,30.48,30.19,17,3,17,0.01
2013-1-8,48,30,18,33,24,16,93,80,55,30.46,30.36,9,1,9,0.02
2013-1-9,51,38,25,44,33,23,94,83,69,30.47,30.26,27,3,27,0.00
2013-1-10,51,40,34,35,32,29,86,75,49,30.62,30.43,11,2,12,0.00
2013-1-11,43,39,37,38,34,30,98,85,68,30.44,30.10,7,1,7,0.21
2013-1-12,59,46,37,53,44,37,100,95,79,30.18,30.07,6,0,6,0.01
2013-1-13,60,50,44,55,49,44,100,94,81,30.08,29.91,7,0,7,0.00
2013-1-14,56,45,34,56,41,33,99,87,72,30.32,29.92,20,3,20,0.21
2013-1-15,36,34,33,34,33,32,98,96,91,30.36,30.14,9,1,9,0.59
2013-1-16,40,36,32,38,34,31,99,94,77,30.15,29.86,11,1,11,0.21
2013-1-17,38,35,33,31,30,27,86,81,72,30.16,30.02,16,3,16,0.00
2013-1-18,35,29,23,28,18,14,82,65,45,30.51,30.13,29,4,29,0.00
2013-1-19,55,42,24,25,20,18,82,46,26,30.37,29.90,19,2,19,0.00
2013-1-20,47,40,28,32,22,10,63,48,28,30.08,29.81,29,6,29,0.00
2013-1-21,38,28,17,22,16,6,82,60,38,30.08,29.85,27,4,27,0.00
2013-1-22,17,12,8,7,2,-2,80,62,51,30.32,30.01,23,6,23,0.00
2013-1-23,19,14,8,14,4,1,88,65,50,30.37,30.13,17,4,17,0.00
2013-1-24,21,16,10,15,9,3,91,75,57,30.57,30.10,19,3,19,0.00
2013-1-25,24,14,10,21,9,3,92,80,66,30.57,30.09,14,1,14,0.00
2013-1-26,29,25,22,24,20,15,89,80,69,30.48,30.11,16,4,16,0.00
2013-1-27,34,27,18,22,18,13,82,71,59,30.60,30.44,11,2,11,0.05
2013-1-28,53,37,28,50,35,21,99,91,73,30.45,30.07,14,2,14,0.28
2013-1-29,67,55,47,56,51,46,98,87,63,30.11,29.89,13,1,13,0.01
2013-1-30,68,53,44,60,51,43,99,94,73,29.89,29.25,29,3,29,0.75
2013-1-31,51,31,24,49,25,14,92,79,64,29.87,29.21,33,8,33,0.07
2013-2-1,25,18,12,21,11,5,90,74,64,30.40,29.83,26,6,26,0.00
2013-2-2,29,19,7,24,14,4,95,80,54,30.40,30.03,16,1,16,0.00
2013-2-3,31,26,20,25,22,14,94,84,71,30.03,29.83,33,3,33,0.00
2013-2-4,32,26,20,31,20,12,98,79,58,30.09,29.89,28,4,28,0.00
2013-2-5,39,35,32,36,33,31,98,93,80,29.94,29.84,11,2,18,0.03
2013-2-6,34,31,23,32,27,20,94,86,80,30.36,29.93,20,3,20,0.00
2013-2-7,37,29,21,29,25,19,95,85,72,30.42,30.16,11,1,11,0.02
2013-2-8,37,31,26,36,28,22,95,87,79,30.16,29.83,34,5,34,0.08
2013-2-9,34,27,21,22,21,16,89,77,58,30.43,30.06,21,7,29,0.00
2013-2-10,40,28,14,28,20,12,92,72,53,30.46,30.14,11,1,11,0.01
2013-2-11,61,45,35,49,34,24,99,72,31,30.15,29.72,38,4,38,0.06
2013-2-12,41,40,39,32,30,28,71,67,63,29.90,29.87,27,8,27,0.00
2013-2-13,34,34,33,33,32,31,97,95,89,29.83,29.71,12,1,12,0.03
2013-2-14,34,33,32,31,29,26,90,85,80,29.90,29.83,17,5,17,0.00
2013-2-15,47,38,33,37,32,29,92,77,53,30.05,29.99,14,4,14,0.00
2013-2-16,34,29,21,30,21,14,94,74,59,30.02,29.90,15,3,15,0.03
2013-2-17,23,20,17,18,13,8,87,74,60,30.29,29.92,24,6,24,0.00
2013-2-18,42,27,13,21,14,6,78,58,37,30.40,30.08,14,2,14,0.00
2013-2-19,48,36,27,41,29,21,90,77,57,30.09,29.69,28,5,28,0.04
2013-2-20,28,23,19,22,15,9,83,70,64,30.23,29.87,28,7,28,0.00
2013-2-21,30,23,20,19,15,11,81,72,62,30.38,30.18,26,5,26,0.00
2013-2-22,29,25,22,28,20,17,95,82,73,30.38,30.16,10,0,10,0.00
2013-2-23,46,34,28,39,31,26,96,90,75,30.16,29.86,10,1,10,0.04
2013-2-24,38,32,26,34,27,21,97,81,67,30.16,29.86,18,4,21,0.00
2013-2-25,43,33,24,28,23,20,89,69,46,30.25,30.15,12,1,12,0.00
2013-2-26,34,32,28,33,27,22,98,85,69,30.18,29.69,20,1,20,0.51
2013-2-27,44,36,33,40,34,33,99,93,72,29.71,29.63,23,2,24,0.37
2013-2-28,37,34,33,33,30,27,92,82,75,29.78,29.66,18,5,18,0.01
2013-3-7,38,36,34,31,30,29,86,80,72,30.25,30.17,18,5,18,0.24
2013-3-12,44,42,42,41,40,39,90,89,88,29.83,29.80,14,4,14,0.07
2013-4-12,69,58,47,62,50,38,99,76,39,29.80,29.55,21,5,21,1.43
2013-4-13,62,52,42,41,35,30,75,55,32,29.98,29.79,25,5,25,0.00
2013-4-14,68,52,37,42,36,29,82,57,34,30.16,29.98,11,2,11,0.00
2013-4-15,61,57,52,52,47,40,85,70,53,30.17,30.07,14,1,14,0.02
2013-4-22,45,44,44,35,35,34,69,68,68,30.36,30.36,9,4,9,0.00
2013-4-23,65,50,34,46,39,32,92,68,43,30.36,30.07,15,2,15,0.00
2013-4-24,78,48,39,60,43,37,96,84,41,30.10,29.71,26,2,26,0.08
2013-4-25,61,48,37,40,33,26,80,58,27,30.32,30.10,20,4,20,0.00
2013-4-26,64,50,34,41,35,32,94,61,32,30.47,30.32,13,1,13,0.00
2013-4-27,71,54,34,48,39,32,92,60,35,30.41,30.21,13,2,13,0.00
2013-4-28,55,51,45,52,46,40,96,86,64,30.22,30.05,12,1,12,0.48
2013-5-3,55,46,42,48,43,41,95,90,75,30.31,30.25,15,1,15,0.00
2013-5-5,65,54,41,45,41,35,91,62,34,30.19,30.07,19,3,19,0.00
2013-5-6,56,52,47,55,48,42,97,88,71,30.13,30.03,17,2,17,0.09
2013-5-7,60,57,54,58,56,52,97,95,93,30.03,29.91,19,3,19,0.08
2013-5-8,66,57,52,58,53,51,99,86,60,29.99,29.89,11,1,11,0.29
2013-5-9,74,61,51,59,55,50,98,80,50,30.00,29.89,16,2,16,0.01
2013-5-10,78,62,51,64,57,50,99,86,57,30.01,29.83,21,1,21,0.51
2013-5-11,68,62,58,63,58,51,98,88,69,29.84,29.73,20,3,20,0.67
2013-5-12,56,50,44,51,41,28,89,72,42,30.03,29.77,24,4,24,0.01
2013-5-13,54,46,38,34,31,25,80,57,39,30.19,30.03,23,4,23,0.00
2013-5-14,63,47,30,47,36,28,96,69,36,30.23,30.01,12,1,12,0.01
2013-5-15,86,68,45,64,54,41,92,64,41,30.01,29.71,24,3,24,0.00
2013-5-16,75,69,61,64,58,54,94,70,49,29.95,29.75,19,4,21,0.09
2013-5-17,83,68,55,64,57,51,99,71,37,30.09,29.95,11,1,11,0.00
2013-5-18,72,63,54,64,58,53,97,86,71,30.15,30.07,13,2,13,0.01
2013-5-19,63,60,57,62,59,57,99,98,96,30.15,30.03,11,1,11,0.02
2013-5-20,84,71,60,70,65,60,100,84,57,30.08,29.92,11,1,11,0.00
2013-5-21,88,74,60,71,65,60,100,76,47,29.97,29.80,13,1,13,0.00
2013-5-22,86,72,63,68,64,60,98,79,47,29.90,29.78,22,1,22,0.89
2013-5-23,81,68,62,68,62,57,100,84,48,29.83,29.71,21,2,21,0.18
2013-5-24,63,50,43,57,42,34,87,76,59,30.24,29.76,27,6,27,0.00
2013-5-25,61,48,37,43,37,31,84,65,45,30.29,30.19,16,5,18,0.00
2013-5-26,67,54,40,44,38,34,81,58,32,30.26,30.17,18,3,18,0.00
2013-5-27,63,53,39,52,45,37,96,77,55,30.30,30.17,9,1,9,0.00
2013-5-28,82,64,51,66,57,49,98,81,48,30.19,30.01,12,1,12,0.05
2013-5-29,85,71,56,68,61,55,99,74,47,30.10,30.05,20,2,20,0.00
2013-5-30,89,74,57,71,63,56,98,72,38,30.18,30.06,8,1,8,0.00
2013-5-31,67,65,64,64,63,62,95,93,90,30.11,30.09,2,0,2,0.00
2013-6-7,70,65,62,68,64,60,100,98,91,29.78,29.66,10,1,10,0.22
2013-6-8,77,66,59,65,60,56,96,81,59,30.10,29.78,11,2,11,0.00
2013-6-9,79,68,56,69,63,55,98,86,67,30.17,30.03,12,1,12,0.00
2013-6-10,76,68,62,73,66,61,100,93,74,30.05,29.75,18,1,18,0.58
2013-6-11,76,69,62,67,64,60,96,84,71,29.86,29.77,17,3,17,0.01
2013-6-12,85,70,64,71,65,62,94,85,60,29.88,29.75,14,1,14,0.00
2013-6-13,73,67,62,70,64,56,98,89,79,29.76,29.50,20,3,20,0.71
2013-6-14,74,66,56,60,56,53,90,72,51,29.95,29.69,14,3,14,0.00
2013-6-17,82,76,67,71,67,64,91,75,59,29.94,29.86,10,1,10,0.12
2013-6-18,74,68,63,69,65,62,97,90,76,29.90,29.79,8,0,8,0.16
2013-6-19,64,63,62,63,62,61,98,96,93,29.92,29.88,6,0,6,0.07